Time;durP1;ratioP1;P1;durP2;ratioP2;P2;SDS_P1;SDS_P2;PMS_P1;PMS_P2;Temp;Humidity;BMP_temperature;BMP_pressure;BME280_temperature;BME280_humidity;BME280_pressure;Samples;Min_cycle;Max_cycle;Signal;HPM_P1;HPM_P2
2021/10/14 00:01:21;;;;;;;34.70;23.30;;;;;;;-0.52;79.00;100040.77;462804;1190;146577;-63
2021/10/14 00:11:28;;;;;;;35.40;25.80;;;;;;;-0.68;78.71;100047.48;471186;1192;141687;-64
2021/10/14 00:21:34;;;;;;;34.10;23.20;;;;;;;-0.69;79.50;100046.45;469814;1190;142490;-64
2021/10/14 00:31:41;;;;;;;37.10;24.60;;;;;;;-0.72;79.37;100046.48;475885;1191;141548;-66
2021/10/14 00:41:47;;;;;;;29.20;19.80;;;;;;;-0.72;79.07;100049.58;469427;1190;143262;-64
2021/10/14 00:51:53;;;;;;;26.70;19.20;;;;;;;-0.73;79.10;100047.20;473802;1191;141339;-63
2021/10/14 01:01:59;;;;;;;31.40;21.20;;;;;;;-0.72;79.64;100044.25;477747;1190;141657;-64
2021/10/14 01:12:06;;;;;;;33.60;21.70;;;;;;;-0.76;79.05;100038.62;476983;1190;143640;-64
2021/10/14 01:22:13;;;;;;;33.40;22.20;;;;;;;-0.74;79.15;100032.92;477824;1190;145663;-64
2021/10/14 01:32:19;;;;;;;42.30;24.40;;;;;;;-0.79;79.04;100029.71;473996;1190;142200;-63
2021/10/14 01:42:25;;;;;;;38.20;23.40;;;;;;;-0.82;79.38;100020.11;466932;1190;142083;-63
2021/10/14 01:52:31;;;;;;;39.80;23.10;;;;;;;-0.82;79.59;100018.75;472568;1192;142811;-64
2021/10/14 02:02:37;;;;;;;54.30;32.20;;;;;;;-0.74;79.66;100023.48;473113;1190;143034;-64
2021/10/14 02:12:43;;;;;;;46.90;26.40;;;;;;;-0.80;79.98;100029.04;473356;1190;142211;-64
2021/10/14 02:22:49;;;;;;;45.30;24.90;;;;;;;-0.95;79.76;100043.61;477658;1190;142643;-64
2021/10/14 02:32:56;;;;;;;39.10;21.50;;;;;;;-1.18;79.69;100048.13;468884;1178;142610;-62
2021/10/14 02:43:02;;;;;;;36.00;22.90;;;;;;;-1.35;79.57;100056.48;465082;1191;142106;-65
2021/10/14 02:53:08;;;;;;;39.00;25.10;;;;;;;-1.52;79.71;100054.20;465435;1191;141216;-63
2021/10/14 03:03:16;;;;;;;37.70;23.90;;;;;;;-1.68;79.67;100065.98;476665;1190;142410;-64
2021/10/14 03:13:20;;;;;;;;;;;;;;;-1.61;80.05;100076.77;474944;1191;142700;-64
2021/10/14 03:23:27;;;;;;;42.30;24.60;;;;;;;-1.37;79.89;100082.96;477003;1191;128961;-63
2021/10/14 03:33:33;;;;;;;44.90;26.80;;;;;;;-1.17;80.01;100078.35;474417;1191;142139;-63
2021/10/14 03:43:39;;;;;;;46.90;29.30;;;;;;;-1.06;80.14;100073.61;464520;1191;141839;-63
2021/10/14 03:53:45;;;;;;;40.40;24.40;;;;;;;-1.00;80.49;100076.32;476740;1191;145256;-63
2021/10/14 04:03:51;;;;;;;38.80;25.00;;;;;;;-0.91;80.89;100088.78;477502;1191;142338;-64
2021/10/14 04:13:57;;;;;;;36.10;23.80;;;;;;;-0.79;80.98;100089.18;473166;1191;142318;-64
2021/10/14 04:24:05;;;;;;;41.00;25.90;;;;;;;-0.70;80.83;100087.73;476661;1190;142195;-63
2021/10/14 04:34:11;;;;;;;29.00;22.20;;;;;;;-0.66;80.89;100084.25;477106;1191;141320;-62
2021/10/14 04:44:17;;;;;;;39.10;23.10;;;;;;;-0.65;80.86;100084.93;467988;1190;143911;-63
2021/10/14 04:54:24;;;;;;;35.90;26.80;;;;;;;-0.68;81.09;100082.38;461765;1191;142989;-61
2021/10/14 05:04:30;;;;;;;42.60;27.90;;;;;;;-0.72;81.35;100090.14;472170;1190;142716;-62
2021/10/14 05:14:36;;;;;;;54.70;35.00;;;;;;;-0.68;81.48;100091.67;465518;1190;141847;-64
2021/10/14 05:24:43;;;;;;;55.40;36.10;;;;;;;-0.62;81.78;100092.82;477331;1191;142067;-64
2021/10/14 05:34:47;;;;;;;;;;;;;;;-0.55;81.82;100094.98;474533;1190;140987;-63
2021/10/14 05:44:54;;;;;;;55.50;35.70;;;;;;;-0.33;81.82;100095.27;476812;1191;128062;-63
2021/10/14 05:55:00;;;;;;;51.20;32.50;;;;;;;-0.03;81.73;100088.20;474619;1191;142091;-64
2021/10/14 06:05:07;;;;;;;44.20;33.50;;;;;;;0.67;81.63;100093.45;477351;1190;145965;-63
2021/10/14 06:15:13;;;;;;;42.70;28.40;;;;;;;1.94;80.85;100092.08;464106;1191;141797;-63
2021/10/14 06:25:19;;;;;;;35.90;25.20;;;;;;;3.46;79.45;100094.39;463864;1192;141079;-62
2021/10/14 06:35:25;;;;;;;27.90;21.80;;;;;;;4.84;77.38;100094.79;476596;1190;141773;-62
2021/10/14 06:45:31;;;;;;;24.50;18.10;;;;;;;6.18;75.22;100086.90;477404;1190;142023;-62
2021/10/14 06:55:37;;;;;;;22.50;15.60;;;;;;;6.83;73.52;100083.16;477237;1190;142607;-67
2021/10/14 07:05:43;;;;;;;18.20;14.90;;;;;;;8.09;72.02;100084.77;464057;1191;141029;-63
2021/10/14 07:15:49;;;;;;;25.80;16.10;;;;;;;11.62;69.58;100075.91;474136;1191;140925;-62
2021/10/14 07:25:55;;;;;;;13.30;12.00;;;;;;;16.54;64.76;100067.73;477491;1191;142055;-63
2021/10/14 07:36:01;;;;;;;10.90;9.90;;;;;;;22.67;56.89;100060.86;473948;1191;142118;-73
2021/10/14 07:46:08;;;;;;;12.90;11.50;;;;;;;20.55;52.07;100059.81;474110;1191;142212;-62
2021/10/14 07:56:15;;;;;;;17.40;13.90;;;;;;;18.96;51.80;100064.23;474374;1190;140641;-62
2021/10/14 08:06:21;;;;;;;11.20;10.00;;;;;;;22.89;50.28;100062.91;477554;1190;140719;-62
2021/10/14 08:16:27;;;;;;;11.30;9.60;;;;;;;28.41;44.68;100048.79;477481;1190;141391;-63
2021/10/14 08:26:39;;;;;;;11.30;9.60;;;;;;;27.80;40.35;100048.02;466733;1190;10138017;-64
2021/10/14 08:36:46;;;;;;;11.10;10.00;;;;;;;26.36;39.62;100047.07;464235;1191;141989;-60
2021/10/14 08:46:52;;;;;;;8.70;7.90;;;;;;;23.54;38.55;100045.77;470343;1190;141105;-61
2021/10/14 08:57:00;;;;;;;9.80;8.30;;;;;;;20.59;39.82;100037.96;476574;1190;141264;-62
2021/10/14 09:07:13;;;;;;;8.20;7.40;;;;;;;17.31;42.14;100036.86;467754;1190;140614;-60
2021/10/14 09:17:19;;;;;;;10.80;9.70;;;;;;;15.71;44.60;100037.35;461663;1192;151482;-61
2021/10/14 09:27:25;;;;;;;10.20;8.80;;;;;;;15.61;45.58;100030.02;464500;1191;140903;-58
2021/10/14 09:37:32;;;;;;;10.90;7.50;;;;;;;14.87;46.80;100016.72;469389;1192;185116;-62
2021/10/14 09:47:39;;;;;;;9.30;6.30;;;;;;;14.39;47.39;100019.58;472656;1190;141591;-61
2021/10/14 09:57:46;;;;;;;10.20;7.30;;;;;;;13.65;48.55;100018.29;461673;1192;141137;-63
2021/10/14 10:07:54;;;;;;;7.90;7.10;;;;;;;13.58;49.62;100016.09;463206;1192;142509;-63
2021/10/14 10:18:00;;;;;;;11.00;6.90;;;;;;;13.43;50.00;100002.52;476058;1187;141433;-64
2021/10/14 10:28:09;;;;;;;8.40;4.80;;;;;;;13.19;50.02;100000.06;476134;1191;141638;-62
2021/10/14 10:38:35;;;;;;;7.80;6.20;;;;;;;12.32;50.93;100000.38;470566;1191;141083;-62
2021/10/14 10:48:43;;;;;;;17.50;9.60;;;;;;;11.71;51.88;99992.27;477695;1191;141303;-63
2021/10/14 10:58:51;;;;;;;17.00;8.20;;;;;;;11.31;52.72;99978.72;477601;1191;140626;-62
2021/10/14 11:09:04;;;;;;;7.50;5.40;;;;;;;11.02;53.05;99969.92;473394;1191;141357;-63
2021/10/14 11:19:18;;;;;;;7.10;5.20;;;;;;;11.00;52.97;99957.07;477699;1191;141050;-61
2021/10/14 11:29:29;;;;;;;8.70;6.20;;;;;;;10.83;53.11;99950.94;477000;1190;142307;-63
2021/10/14 11:39:38;;;;;;;10.00;5.30;;;;;;;10.64;53.80;99946.44;477752;1191;141640;-62
2021/10/14 11:49:45;;;;;;;6.40;5.70;;;;;;;10.61;54.13;99932.59;477720;1184;141634;-62
2021/10/14 11:59:50;;;;;;;7.90;5.90;;;;;;;10.77;54.29;99918.51;467877;1190;141149;-63
2021/10/14 12:09:58;;;;;;;6.80;4.30;;;;;;;10.73;54.28;99929.98;477770;1190;142305;-65
2021/10/14 12:20:13;;;;;;;8.90;5.50;;;;;;;10.42;53.64;99910.73;477777;1190;140599;-64
2021/10/14 12:30:37;;;;;;;8.90;6.50;;;;;;;10.53;53.36;99906.28;477786;1190;141280;-68
2021/10/14 12:40:58;;;;;;;11.50;5.70;;;;;;;10.33;53.63;99889.90;477750;1190;141375;-63
2021/10/14 12:51:08;;;;;;;5.90;4.60;;;;;;;10.16;54.23;99891.05;476960;1190;140970;-66
2021/10/14 13:01:17;;;;;;;7.70;5.10;;;;;;;9.94;54.94;99885.83;477803;1190;140857;-65
2021/10/14 13:11:29;;;;;;;5.50;4.70;;;;;;;9.94;55.84;99882.34;476975;1190;141156;-65
2021/10/14 13:21:36;;;;;;;5.20;4.40;;;;;;;9.83;56.62;99871.40;477673;1191;140334;-73
2021/10/14 13:31:41;;;;;;;6.10;4.30;;;;;;;9.79;57.02;99847.10;471417;1190;178653;-63
2021/10/14 13:41:56;;;;;;;6.90;4.90;;;;;;;9.70;57.31;99841.52;471155;1190;141978;-66
2021/10/14 13:52:02;;;;;;;5.90;4.50;;;;;;;9.60;57.71;99835.42;477765;1190;140668;-65
2021/10/14 14:02:08;;;;;;;10.20;6.20;;;;;;;9.46;57.89;99835.02;471944;1192;141437;-65
2021/10/14 14:12:15;;;;;;;6.50;5.50;;;;;;;9.48;57.99;99830.83;475369;1190;143588;-66
2021/10/14 14:22:21;;;;;;;10.70;6.40;;;;;;;9.43;57.93;99825.35;453391;1192;10001996;-66
2021/10/14 14:32:27;;;;;;;9.70;6.90;;;;;;;9.49;58.04;99814.38;476515;1192;141940;-65
2021/10/14 14:42:33;;;;;;;8.70;5.10;;;;;;;9.40;58.46;99810.17;476568;1192;141408;-65
2021/10/14 14:52:39;;;;;;;8.30;5.60;;;;;;;9.22;58.70;99808.86;468347;1192;141348;-65
2021/10/14 15:02:45;;;;;;;10.60;6.60;;;;;;;9.07;59.35;99812.46;467883;1192;141377;-65
2021/10/14 15:12:51;;;;;;;11.60;7.50;;;;;;;8.94;59.61;99808.45;472677;1192;141034;-66
2021/10/14 15:22:57;;;;;;;11.40;7.90;;;;;;;8.82;59.86;99802.61;460913;1192;143286;-66
2021/10/14 15:33:05;;;;;;;13.60;8.10;;;;;;;8.77;60.33;99803.07;461277;1192;142216;-65
2021/10/14 15:43:12;;;;;;;13.00;7.90;;;;;;;8.70;60.76;99805.36;472702;1191;142907;-65
2021/10/14 15:53:18;;;;;;;9.50;7.10;;;;;;;8.61;61.32;99802.13;476825;1191;142284;-66
2021/10/14 16:03:24;;;;;;;11.20;7.00;;;;;;;8.54;62.16;99808.08;465875;1191;140231;-67
2021/10/14 16:13:30;;;;;;;13.70;8.10;;;;;;;8.47;62.73;99804.05;474666;1190;141511;-66
2021/10/14 16:23:38;;;;;;;11.70;7.60;;;;;;;8.45;62.96;99799.11;476430;1192;142297;-66
2021/10/14 16:34:07;;;;;;;16.50;8.80;;;;;;;8.49;63.34;99795.77;477671;1190;141073;-66
2021/10/14 16:44:13;;;;;;;14.10;9.40;;;;;;;8.52;63.97;99789.17;476551;1191;141576;-64
2021/10/14 16:54:22;;;;;;;12.10;8.70;;;;;;;8.53;64.75;99779.35;460430;1191;142567;-60
2021/10/14 17:04:28;;;;;;;11.00;8.70;;;;;;;8.42;65.18;99772.03;477421;1190;141079;-66
2021/10/14 17:14:37;;;;;;;16.50;10.20;;;;;;;8.28;65.74;99775.92;476685;1190;142376;-60
2021/10/14 17:35:39;;;;;;;9.80;7.50;;;;;;;8.31;66.21;99760.39;466928;1190;141284;-68
2021/10/14 17:45:56;;;;;;;10.30;6.80;;;;;;;8.50;66.66;99758.40;468891;1191;141073;-63
2021/10/14 17:56:03;;;;;;;10.50;7.90;;;;;;;8.33;67.04;99755.95;474755;1191;141356;-66
2021/10/14 18:06:20;;;;;;;12.20;8.10;;;;;;;8.22;67.73;99756.50;470522;1190;144565;-67
2021/10/14 18:47:42;;;;;;;11.50;8.30;;;;;;;7.79;69.80;99734.79;466419;1190;141531;-68
2021/10/14 18:57:50;;;;;;;12.40;8.30;;;;;;;7.71;70.29;99728.54;463211;1190;141771;-67
2021/10/14 19:08:12;;;;;;;12.20;9.10;;;;;;;7.72;70.79;99727.45;470227;1190;142197;-68
2021/10/14 19:18:36;;;;;;;9.90;8.30;;;;;;;7.72;71.17;99730.40;475301;1190;145301;-68
2021/10/14 20:20:42;;;;;;;10.50;8.30;;;;;;;7.80;72.32;99709.28;465702;1188;141404;-65
2021/10/14 20:30:48;;;;;;;11.40;7.90;;;;;;;7.78;72.69;99707.96;477516;1190;141820;-62
2021/10/14 20:40:54;;;;;;;12.70;8.70;;;;;;;7.69;73.42;99706.86;469670;1190;141143;-66
2021/10/14 20:51:01;;;;;;;8.90;7.50;;;;;;;7.64;74.32;99694.77;460584;1190;143969;-64
2021/10/14 21:11:30;;;;;;;12.70;9.50;;;;;;;7.39;75.51;99680.84;466760;1190;142556;-61
2021/10/14 21:21:36;;;;;;;11.30;8.60;;;;;;;7.30;75.96;99671.48;461491;1190;141108;-63
2021/10/14 21:32:07;;;;;;;10.40;9.30;;;;;;;7.27;76.42;99670.42;461826;1191;142410;-62
2021/10/14 21:42:13;;;;;;;12.90;9.50;;;;;;;7.24;76.75;99662.01;461630;1191;141449;-63
2021/10/14 21:52:21;;;;;;;10.60;8.30;;;;;;;7.22;77.25;99662.65;461400;1192;142129;-62
2021/10/14 22:02:27;;;;;;;9.60;8.60;;;;;;;7.19;77.62;99665.91;460907;1190;140990;-63
2021/10/14 22:12:34;;;;;;;13.20;9.20;;;;;;;7.16;78.05;99658.06;467958;1190;142312;-62
2021/10/14 22:22:41;;;;;;;10.30;8.60;;;;;;;7.20;78.31;99650.89;469945;1176;142172;-61
2021/10/14 22:32:48;;;;;;;10.40;9.30;;;;;;;7.23;78.51;99646.76;461292;1192;143554;-61
2021/10/14 22:42:54;;;;;;;8.90;8.00;;;;;;;7.24;78.88;99644.63;461887;1190;143620;-63
2021/10/14 22:53:02;;;;;;;8.10;7.30;;;;;;;7.24;79.10;99638.86;466023;1191;140687;-62
2021/10/14 23:03:08;;;;;;;11.80;10.00;;;;;;;7.29;79.39;99630.42;469578;1190;140952;-62
2021/10/14 23:13:15;;;;;;;12.80;10.60;;;;;;;7.34;79.74;99622.89;462812;1174;140568;-62
2021/10/14 23:23:21;;;;;;;11.60;10.30;;;;;;;7.37;79.97;99616.30;470418;1190;144506;-62
2021/10/14 23:33:27;;;;;;;12.70;11.00;;;;;;;7.42;80.10;99612.75;477822;1190;141729;-62
2021/10/14 23:43:33;;;;;;;15.10;13.20;;;;;;;7.51;80.30;99604.45;466590;1177;142927;-61
2021/10/14 23:53:39;;;;;;;15.50;13.90;;;;;;;7.63;80.36;99600.49;475935;1190;142183;-62
